Archival Weather

Sharurah

Sharurah, Saudi Arabia (OESH)

Report from: Tuesday, September 19, 2023 11:00 PM +03
Current time: Tuesday, July 16, 2024 5:26 PM +03

Current weather – Weather history – Daily summaries
Weather forecast

Temperature32.0°C (89.6°F)
Heat index29.9°C (85.7°F)
Dew point4.0°C (39.2°F)
Winds 5 kts (2.6 m/s, 5.8 mph) East (80°)
Clouds Sky clear
Altimeter29.80 in.Hg (1009 mB)
Relative humidity17 %
Density altitude2,206 ft. (672 m)
Remarks Ceiling and visibility OK
No significant changes expected in the next two hours
Flight conditions Visual Meteorological Conditions
Raw dataOESH 192000Z 08005KT CAVOK 32/04 Q1009 NOSIG
An error has occurred. This application may no longer respond until reloaded. Reload 🗙